27 maja 2022

Czas Kod Pogoda Temp. Widoczność Sufit Wiatr METAR/SPECI
7:30 pm
V
75 °F 6¼ mi+ - 320° 320° 13 kt METAR LFSL 271730Z AUTO 32013KT CAVOK 24/12 Q1022 NOSIG
7:00 pm
V
75 °F 6¼ mi+ - 320° 320° 14 kt METAR LFSL 271700Z AUTO 32014KT CAVOK 24/12 Q1022 NOSIG
6:30 pm
V
75 °F 6¼ mi+ - 320° 320° 14 kt METAR LFSL 271630Z AUTO 32014KT CAVOK 24/12 Q1022 NOSIG
6:00 pm
V
75 °F 6¼ mi+ - 310° 310° 15 kt METAR LFSL 271600Z AUTO 31015KT CAVOK 24/12 Q1022 NOSIG
5:30 pm
V
75 °F 6¼ mi+ - 330° 330° 12 kt METAR LFSL 271530Z AUTO 33012KT 300V020 CAVOK 24/12 Q1023 NOSIG
5:00 pm
V
75 °F 6¼ mi+ - 310° 310° 11 kt METAR LFSL 271500Z AUTO 31011KT 250V350 CAVOK 24/12 Q1023 NOSIG
4:30 pm
V
75 °F 6¼ mi+ - 340° 340° 11 kt METAR LFSL 271430Z AUTO 34011KT CAVOK 24/12 Q1023 NOSIG
4:00 pm
V
75 °F 6¼ mi+ - 330° 330° 12 kt METAR LFSL 271400Z AUTO 33012KT 290V010 CAVOK 24/13 Q1023 NOSIG
3:30 pm
V
73 °F 6¼ mi+ - 340° 340° 10 kt METAR LFSL 271330Z AUTO 34010KT 310V010 CAVOK 23/13 Q1024 NOSIG
3:00 pm
V
73 °F 6¼ mi+ - 340° 340° 9 kt METAR LFSL 271300Z AUTO 34009KT 300V020 CAVOK 23/13 Q1024 NOSIG
2:30 pm
V
72 °F 6¼ mi+ - 320° 320° 9 kt METAR LFSL 271230Z AUTO 32009KT 260V020 9999 FEW034 22/12 Q1024 NOSIG
2:00 pm
V
72 °F 6¼ mi+ - 330° 330° 9 kt METAR LFSL 271200Z AUTO 33009KT 290V030 9999 FEW033 22/13 Q1024 NOSIG
1:30 pm
V
72 °F 6¼ mi+ - 330° 330° 11 kt METAR LFSL 271130Z AUTO 33011KT 300V360 9999 FEW031 22/13 Q1025 NOSIG
1:00 pm
V
70 °F 6¼ mi+ - 330° 330° 11 kt METAR LFSL 271100Z AUTO 33011KT 280V360 9999 SCT031 21/13 Q1025 NOSIG
12:30 pm
M
70 °F 6¼ mi+ 2.800 ft 320° 320° 10 kt METAR LFSL 271030Z AUTO 32010KT 280V340 9999 BKN028 21/12 Q1025 NOSIG
12:00 pm
M
68 °F 6¼ mi+ 2.700 ft 340° 340° 10 kt METAR LFSL 271000Z AUTO 34010KT 300V360 9999 BKN027 20/12 Q1025 NOSIG
11:30 am
M
66 °F 6¼ mi+ 2.400 ft 330° 330° 10 kt METAR LFSL 270930Z AUTO 33010KT 300V360 9999 BKN024 19/12 Q1025 NOSIG
11:00 am
V
66 °F 6¼ mi+ - 360° 360° 8 kt METAR LFSL 270900Z AUTO 36008KT 330V030 9999 SCT024 19/12 Q1025 NOSIG
10:30 am
V
66 °F 6¼ mi+ - 320° 320° 11 kt METAR LFSL 270830Z AUTO 32011KT 9999 FEW024 19/12 Q1025 NOSIG
10:00 am
V
64 °F 6¼ mi+ - 330° 330° 10 kt METAR LFSL 270800Z AUTO 33010KT 300V020 CAVOK 18/12 Q1026 NOSIG
9:30 am
V
61 °F 6¼ mi+ - 320° 320° 10 kt METAR LFSL 270730Z AUTO 32010KT 300V360 9999 ////// 16/12 Q1026

25 maja 2022

Czas Kod Pogoda Temp. Widoczność Sufit Wiatr METAR/SPECI
7:30 pm
V
66 °F 6¼ mi+ - 310° 310° 9 kt METAR LFSL 251730Z AUTO 31009KT 270V330 CAVOK 19/07 Q1023 NOSIG
7:00 pm
V
68 °F 6¼ mi+ - 300° 300° 12 kt METAR LFSL 251700Z AUTO 30012KT 250V320 CAVOK 20/07 Q1022 NOSIG
6:30 pm
V
68 °F 6¼ mi+ 7.000 ft 290° 290° 10 kt METAR LFSL 251630Z AUTO 29010KT 240V320 9999 FEW001 BKN070 20/07 Q1022 NOSIG
6:00 pm
V
66 °F 6¼ mi+ - 290° 290° 8 kt METAR LFSL 251600Z AUTO 29008KT 240V320 CAVOK 19/07 Q1022 NOSIG
5:30 pm
V
68 °F 6¼ mi+ - 330° 330° 10 kt METAR LFSL 251530Z AUTO 33010KT CAVOK 20/07 Q1022 NOSIG
5:00 pm
V
68 °F 6¼ mi+ - 320° 320° 10 kt METAR LFSL 251500Z AUTO 32010KT CAVOK 20/07 Q1022 NOSIG
Starsze dane

Pobierz naszą aplikację

Łatwy dostęp do całej pogody lotniczej na telefonie komórkowym i tablecie.
Z wieloma funkcjami niedostępnymi na stronie internetowej, takimi jak wsparcie offline i osobista lista lotnisk.

My i osoby trzecie śledzimy twoje zachowanie w internecie na naszej stronie za pomocą plików cookie. Jeśli kontynuujesz, zakładamy, że zgadzasz się z naszą polityką plików cookie. Dowiedz się więcej